ADDS TAF Board (Experimental) INFO Settings

IDs: Format: Expanded Condensed

KEWR - Newark Intl, NJ, US

Issued at 1428 UTC 30 Mar 2015
Updated at: 1730 UTC 30 Mar 2015
Time1651Z 30/18Z 30/19Z 30/20Z 30/21Z 30/22Z 30/23Z 31/00Z 31/01Z 31/02Z 31/03Z 31/04Z 31/05Z 31/06Z
Type OBS PRVL PRVL PRVL PRVL PRVL PRVL PRVL PRVL PRVL PRVL PRVL PRVL PRVL
VIS 10 >6 >6 >6 >6 >6 >6 >6 >6 >6 >6 >6 >6 >6
CIG 250 -- -- -- -- -- -- -- -- -- -- -- -- --
Cover BKN SCT SCT SCT SCT SCT SCT SCT SKC SKC SKC SKC SKC SKC
FltCat VFR VFR VFR VFR VFR VFR VFR VFR VFR VFR VFR VFR VFR VFR
WX -- -- -- -- -- -- -- -- -- -- -- -- -- --
WDir 220 280 280 280 280 280 280 280 280 280 280 260 260 260
WSpd 13 16 16 16 16 16 16 16 11 11 11 7 7 7
WGst 19 27 27 27 27 27 27 27 -- -- -- -- -- --
R04/22
XWnd 3 15 15 15 15 15 15 15 11 11 11 6 6 6
XGst 5 26 26 26 26 26 26 26 -- -- -- -- -- --
HWnd -13 -4 -4 -4 -4 -4 -4 -4 -3 -3 -3 -4 -4 -4
HGst -18 -7 -7 -7 -7 -7 -7 -7 -- -- -- -- -- --
R11/29
XWnd -11 1 1 1 1 1 1 1 1 1 1 -2 -2 -2
XGst -16 2 2 2 2 2 2 2 -- -- -- -- -- --
HWnd -7 -16 -16 -16 -16 -16 -16 -16 -11 -11 -11 -7 -7 -7
HGst -11 -27 -27 -27 -27 -27 -27 -27 -- -- -- -- -- --

NOTE: TEMPO conditions in [brackets]. Keep in mind TEMPO conditions might be better (lower impact) than prevailing conditions.

Raw TAF
KEWR 301428Z 3014/3118 22013G23KT P6SM BKN040
  FM301800 28016G27KT P6SM SCT040
  FM310100 28011KT P6SM SKC
  FM310400 26007KT P6SM SKC
  FM311500 23008KT P6SM BKN120


Raw METAR
KEWR 301651Z 22013G19KT 10SM FEW030 SCT046 SCT075 BKN250 09/M01 A2982 RMK AO2 SLP097 T00941006
KEWR 301551Z 23016G19KT 10SM FEW025 SCT047 BKN065 BKN250 07/01 A2984 RMK AO2 SLP104 T00670006
KEWR 301451Z 23015G18KT 10SM FEW020 BKN042 OVC075 04/M01 A2987 RMK AO2 SLP115 T00441006 56018

METAR Board
Radar Display
Forecast Discussion

TAF Board Legend

Potential Impact
Threat None Slight Moderate High
Visibility (sm) ≥5.1 5.1>X≥3 3>X≥1 <1
Ceiling (100 ft) ≥30.1 30.1>X≥10 10>X≥5 <5
Wind Speed (kt) <10 10≤X<20 20≤X<30 ≥30
Wind Gust (kt) <15 15≤X<25 25≤X<35 ≥35
Weather No Wx Reported VCTS,-TS,-FZRA,SN TS,FZRA +TS,+FZRA,+SN